createdAt,value
2022-08-10T00:01:57.341Z,100.00
2022-08-10T00:06:59.518Z,100.00
2022-08-10T00:12:01.594Z,100.00
2022-08-10T00:17:04.079Z,100.00
2022-08-10T00:22:06.383Z,100.00
2022-08-10T00:27:47.027Z,100.00
2022-08-10T00:32:30.940Z,100.00
2022-08-10T00:37:33.030Z,100.00
2022-08-10T00:42:35.528Z,100.00
2022-08-10T00:47:38.017Z,100.00
2022-08-10T00:52:40.796Z,100.00
2022-08-10T00:57:43.154Z,100.00
2022-08-10T01:02:45.754Z,100.00
2022-08-10T01:08:10.694Z,100.00
2022-08-10T01:13:51.937Z,100.00
2022-08-10T01:18:54.079Z,100.00
2022-08-10T01:24:14.714Z,100.00
2022-08-10T01:29:43.522Z,100.00
2022-08-10T01:35:06.820Z,100.00
2022-08-10T01:40:13.920Z,100.00
2022-08-10T01:45:21.597Z,100.00
2022-08-10T01:50:36.020Z,100.00
2022-08-10T01:55:58.809Z,100.00
2022-08-10T02:01:03.168Z,100.00
2022-08-10T02:06:08.484Z,100.00
2022-08-10T02:11:12.506Z,100.00
2022-08-10T02:16:16.097Z,100.00
2022-08-10T02:21:22.536Z,100.00
2022-08-10T02:26:26.586Z,100.00
2022-08-10T02:31:30.254Z,100.00
2022-08-10T02:36:38.500Z,100.00
2022-08-10T02:45:12.827Z,100.00
2022-08-10T02:47:26.867Z,100.00
2022-08-10T02:52:41.457Z,100.00
2022-08-10T02:58:12.534Z,100.00
2022-08-10T03:03:19.709Z,100.00
2022-08-10T03:08:26.232Z,100.00
2022-08-10T03:13:31.265Z,100.00
2022-08-10T03:18:34.502Z,100.00
2022-08-10T03:23:39.165Z,100.00
2022-08-10T03:28:41.830Z,100.00
2022-08-10T03:33:45.101Z,100.00
2022-08-10T03:38:51.964Z,100.00
2022-08-10T03:43:56.155Z,100.00
2022-08-10T03:49:01.649Z,100.00
2022-08-10T03:54:07.195Z,100.00
2022-08-10T03:59:13.034Z,100.00
2022-08-10T04:04:20.602Z,100.00
2022-08-10T04:09:53.326Z,100.00
2022-08-10T04:14:53.723Z,100.00
2022-08-10T04:19:58.075Z,100.00
2022-08-10T04:25:05.049Z,100.00
2022-08-10T04:30:08.129Z,100.00
2022-08-10T04:35:11.479Z,100.00
2022-08-10T04:40:29.840Z,99.19
2022-08-10T04:45:48.612Z,98.44
2022-08-10T04:50:53.672Z,96.37
2022-08-10T04:55:56.132Z,95.25
2022-08-10T05:00:58.354Z,95.17
2022-08-10T05:06:00.548Z,92.68
2022-08-10T05:11:03.845Z,92.09
2022-08-10T05:16:11.072Z,91.42
2022-08-10T05:21:53.797Z,90.52
2022-08-10T05:27:09.465Z,92.53
2022-08-10T05:32:15.011Z,92.00
2022-08-10T05:38:09.692Z,89.87
2022-08-10T05:42:41.938Z,88.44
2022-08-10T05:48:55.623Z,86.91
2022-08-10T05:54:02.803Z,85.88
2022-08-10T05:58:29.227Z,82.95
2022-08-10T06:03:36.612Z,82.18
2022-08-10T06:09:19.613Z,77.10
2022-08-10T06:14:41.702Z,65.99
2022-08-10T06:19:55.040Z,55.40
2022-08-10T06:25:31.955Z,53.31
2022-08-10T06:30:21.296Z,43.57
2022-08-10T06:35:29.470Z,38.80
2022-08-10T06:40:38.339Z,36.68
2022-08-10T06:46:07.560Z,33.29
2022-08-10T06:51:24.991Z,32.88
2022-08-10T07:02:52.157Z,33.31
2022-08-10T07:08:01.256Z,34.00
2022-08-10T07:13:06.931Z,32.19
2022-08-10T07:18:11.422Z,37.79
2022-08-10T07:23:55.602Z,41.53
2022-08-10T07:28:37.387Z,43.37
2022-08-10T07:33:42.588Z,45.16
2022-08-10T07:38:46.484Z,49.60
2022-08-10T07:43:51.128Z,53.78
2022-08-10T07:49:03.048Z,55.47
2022-08-10T07:54:32.218Z,49.75
2022-08-10T07:59:41.139Z,45.40
2022-08-10T08:04:44.890Z,41.19
2022-08-10T08:09:57.887Z,38.99
2022-08-10T08:16:18.352Z,41.74
2022-08-10T08:20:27.258Z,46.87
2022-08-10T08:25:33.684Z,50.27
2022-08-10T08:30:38.117Z,52.86
2022-08-10T08:35:41.163Z,56.64
2022-08-10T08:40:51.240Z,58.93
2022-08-10T08:46:11.920Z,58.55
2022-08-10T08:52:09.849Z,58.89
2022-08-10T08:57:08.291Z,58.77
2022-08-10T09:02:22.574Z,57.80
2022-08-10T09:08:00.164Z,55.97
2022-08-10T09:13:27.406Z,57.11
2022-08-10T09:18:40.438Z,54.00
2022-08-10T09:24:05.755Z,51.12
2022-08-10T09:29:13.578Z,50.83
2022-08-10T09:36:22.447Z,51.47
2022-08-10T09:40:56.326Z,50.39
2022-08-10T09:45:40.590Z,49.72
2022-08-10T09:56:49.123Z,49.94
2022-08-10T10:02:35.421Z,46.29
2022-08-10T10:07:43.949Z,45.75
2022-08-10T10:12:53.642Z,43.19
2022-08-10T10:18:15.366Z,41.97
2022-08-10T10:24:19.815Z,41.62
2022-08-10T10:29:44.763Z,38.06
2022-08-10T10:34:41.976Z,37.14
2022-08-10T10:39:47.732Z,35.65
2022-08-10T10:45:04.726Z,35.99
2022-08-10T10:50:15.312Z,37.94
2022-08-10T10:55:33.841Z,37.59
2022-08-10T11:00:59.296Z,38.29
2022-08-10T11:06:09.905Z,39.07
2022-08-10T11:11:59.658Z,38.34
2022-08-10T11:16:49.909Z,39.61
2022-08-10T11:22:15.917Z,41.39
2022-08-10T11:27:32.352Z,39.66
2022-08-10T11:32:58.204Z,41.41
2022-08-10T11:38:31.038Z,41.20
2022-08-10T11:43:32.922Z,37.61
2022-08-10T11:48:53.179Z,37.29
2022-08-10T11:54:08.188Z,37.58
2022-08-10T11:59:29.880Z,35.51
2022-08-10T12:04:35.235Z,38.85
2022-08-10T12:10:09.880Z,41.37
2022-08-10T12:15:11.936Z,41.57
2022-08-10T12:20:36.917Z,41.52
2022-08-10T12:25:55.647Z,42.00
2022-08-10T12:31:04.119Z,42.53
2022-08-10T12:36:18.603Z,41.72
2022-08-10T12:41:44.636Z,39.91
2022-08-10T12:47:00.422Z,41.32
2022-08-10T12:52:25.042Z,43.08
2022-08-10T12:57:28.737Z,43.55
2022-08-10T13:02:43.980Z,43.17
2022-08-10T13:08:27.103Z,42.92
2022-08-10T13:13:37.090Z,43.16
2022-08-10T13:18:42.787Z,41.99
2022-08-10T13:24:03.918Z,40.19
2022-08-10T13:29:15.533Z,39.86
2022-08-10T13:34:43.123Z,41.21
2022-08-10T13:39:57.828Z,41.49
2022-08-10T13:45:09.514Z,42.45
2022-08-10T13:50:14.928Z,44.23
2022-08-10T13:55:20.883Z,44.49
2022-08-10T14:00:38.315Z,44.67
2022-08-10T14:05:50.950Z,45.12
2022-08-10T14:11:08.509Z,45.33
2022-08-10T14:16:13.757Z,44.62
2022-08-10T14:21:16.383Z,44.90
2022-08-10T14:26:30.975Z,44.17
2022-08-10T14:31:36.782Z,43.35
2022-08-10T14:36:56.530Z,42.54
2022-08-10T14:42:20.070Z,42.25
2022-08-10T14:47:59.467Z,42.19
2022-08-10T14:52:53.333Z,42.73
2022-08-10T14:58:17.183Z,44.50
2022-08-10T15:04:01.890Z,45.19
2022-08-10T15:08:48.455Z,45.94
2022-08-10T15:14:15.052Z,46.24
2022-08-10T15:20:03.364Z,45.53
2022-08-10T15:25:18.584Z,45.69
2022-08-10T15:30:34.122Z,45.28
2022-08-10T15:35:55.809Z,46.56
2022-08-10T15:40:59.750Z,47.01
2022-08-10T15:46:15.876Z,46.91
2022-08-10T15:51:53.957Z,50.53
2022-08-10T15:57:07.430Z,50.13
2022-08-10T16:02:17.677Z,51.49
2022-08-10T16:07:45.267Z,50.26
2022-08-10T16:13:00.950Z,51.16
2022-08-10T16:18:11.355Z,51.29
2022-08-10T16:23:18.160Z,53.94
2022-08-10T16:28:23.785Z,54.94
2022-08-10T16:33:53.344Z,55.78
2022-08-10T16:38:54.037Z,55.45
2022-08-10T16:43:59.694Z,56.55
2022-08-10T16:49:02.844Z,55.54
2022-08-10T16:54:10.082Z,54.23
2022-08-10T16:59:17.819Z,58.28
2022-08-10T17:04:24.910Z,61.12
2022-08-10T17:09:34.566Z,62.29
2022-08-10T17:14:39.375Z,63.56
2022-08-10T17:19:45.133Z,64.52
2022-08-10T17:24:51.471Z,66.40
2022-08-10T17:30:04.823Z,68.45
2022-08-10T17:35:22.501Z,69.03
2022-08-10T17:40:29.062Z,70.99
2022-08-10T17:45:48.377Z,72.47
2022-08-10T17:50:53.269Z,72.35
2022-08-10T17:55:58.430Z,72.94
2022-08-10T18:01:38.601Z,72.83
2022-08-10T18:06:26.242Z,73.50
2022-08-10T18:11:31.516Z,76.14
2022-08-10T18:16:35.022Z,75.88
2022-08-10T18:21:43.872Z,76.04
2022-08-10T18:26:57.472Z,78.15
2022-08-10T18:32:03.282Z,80.12
2022-08-10T18:37:09.403Z,79.53
2022-08-10T18:42:17.359Z,79.26
2022-08-10T18:47:33.936Z,82.50
2022-08-10T18:52:38.589Z,83.69
2022-08-10T18:57:52.832Z,81.47
2022-08-10T19:03:22.574Z,82.59
2022-08-10T19:08:50.192Z,83.56
2022-08-10T19:14:00.879Z,85.47
2022-08-10T19:19:31.010Z,83.68
2022-08-10T19:25:01.737Z,84.95
2022-08-10T19:30:13.432Z,85.31
2022-08-10T19:35:22.416Z,85.58
2022-08-10T19:40:43.336Z,85.09
2022-08-10T19:46:03.078Z,85.28
2022-08-10T19:51:19.133Z,85.09
2022-08-10T19:56:36.006Z,86.33
2022-08-10T20:01:54.380Z,87.26
2022-08-10T20:07:12.662Z,85.97
2022-08-10T20:12:40.538Z,87.93
2022-08-10T20:17:55.382Z,86.97
2022-08-10T20:23:26.664Z,87.81
2022-08-10T20:28:40.899Z,85.94
2022-08-10T20:33:57.542Z,86.70
2022-08-10T20:39:04.101Z,88.13
2022-08-10T20:44:44.025Z,88.78
2022-08-10T20:50:16.066Z,91.06
2022-08-10T20:55:20.908Z,90.54
2022-08-10T21:00:24.431Z,91.07
2022-08-10T21:06:00.933Z,93.45
2022-08-10T21:11:33.571Z,93.32
2022-08-10T21:16:38.241Z,94.37
2022-08-10T21:21:59.105Z,93.15
2022-08-10T21:27:16.915Z,95.36
2022-08-10T21:32:28.884Z,93.47
2022-08-10T21:44:26.228Z,97.14
2022-08-10T21:50:11.133Z,97.48
2022-08-10T21:55:58.112Z,96.57
2022-08-10T22:01:39.319Z,94.43
2022-08-10T22:07:03.658Z,95.21
2022-08-10T22:12:31.900Z,95.31
2022-08-10T22:18:04.859Z,96.11
2022-08-10T22:23:41.030Z,96.69
2022-08-10T22:29:07.661Z,100.00
2022-08-10T22:31:28.078Z,96.14
2022-08-10T22:35:13.016Z,100.00
2022-08-10T22:40:41.198Z,100.00
2022-08-10T22:46:12.904Z,100.00
2022-08-10T22:51:23.266Z,100.00
2022-08-10T22:56:44.426Z,100.00
2022-08-10T23:02:07.956Z,100.00
2022-08-10T23:07:37.212Z,100.00
2022-08-10T23:13:05.872Z,100.00
2022-08-10T23:18:31.631Z,100.00
2022-08-10T23:23:42.270Z,100.00
2022-08-10T23:29:05.174Z,100.00
2022-08-10T23:34:11.805Z,100.00
2022-08-10T23:39:26.986Z,100.00
2022-08-10T23:44:36.104Z,100.00
2022-08-10T23:49:41.479Z,100.00
2022-08-10T23:54:47.184Z,100.00
